Swink, Oklahoma
Current Conditions -  °F | °C
As of 7:55 AM on Saturday 25 Oct 2014 (Local Time) from KHHW Reporting Station
Haze Haze  
Wind Chill: 58°   Ceiling: Unl
Heat Index: 58°   Visibility: 5mi
Dew Point: 56°   Wind: 3mph
Humidity: 91%   Direction: 120°ESE
Pressure: 30.13"   Gusts: NA
Location:  34.02°N, 95.2°W
Report Text: KHHW 251255Z AUTO 12003KT 5SM BR CLR 15/13 A3013 RMK AO2 T01470133
Loading
Personal Weather Stations






























Interactive Weather Map
Tropical Storm Tracking
New forecast layout! Learn more

10-Day Weather Forecast

Advertisements
Track Severe Weather on mobile